Time;durP1;ratioP1;P1;durP2;ratioP2;P2;SDS_P1;SDS_P2;PMS_P1;PMS_P2;Temp;Humidity;BMP_temperature;BMP_pressure;BME280_temperature;BME280_humidity;BME280_pressure;Samples;Min_cycle;Max_cycle;Signal;HPM_P1;HPM_P2
2021/06/06 00:02:04;;;;;;;8.13;5.00;;;;;;;;;;5111670;27;20015;-43
2021/06/06 00:04:29;;;;;;;8.43;4.70;;;;;;;;;;5110829;27;20048;-41
2021/06/06 00:06:55;;;;;;;10.55;5.70;;;;;;;;;;5106031;27;20028;-40
2021/06/06 00:09:20;;;;;;;12.18;4.82;;;;;;;;;;5111755;27;20073;-41
2021/06/06 00:11:50;;;;;;;8.75;5.32;;;;;;;;;;5109293;27;20012;-40
2021/06/06 00:14:18;;;;;;;9.68;5.72;;;;;;;;;;5100475;27;20043;-39
2021/06/06 00:16:46;;;;;;;13.38;6.85;;;;;;;;;;5109526;27;20515;-40
2021/06/06 00:19:12;;;;;;;9.98;5.63;;;;;;;;;;5101467;27;20023;-40
2021/06/06 00:21:38;;;;;;;11.52;4.93;;;;;;;;;;5104810;27;20051;-40
2021/06/06 00:24:04;;;;;;;9.73;6.22;;;;;;;;;;5104422;27;20027;-40
2021/06/06 00:26:30;;;;;;;11.68;5.18;;;;;;;;;;5107797;27;20230;-40
2021/06/06 00:28:55;;;;;;;8.98;4.68;;;;;;;;;;5106687;27;20717;-40
2021/06/06 00:31:21;;;;;;;6.85;4.03;;;;;;;;;;5102935;27;20026;-41
2021/06/06 00:33:49;;;;;;;8.65;6.07;;;;;;;;;;5099599;27;20161;-42
2021/06/06 00:36:14;;;;;;;7.78;3.97;;;;;;;;;;5103973;27;20103;-40
2021/06/06 00:38:39;;;;;;;9.18;4.47;;;;;;;;;;5103424;27;20492;-40
2021/06/06 00:41:05;;;;;;;9.90;6.05;;;;;;;;;;5102737;27;20028;-42
2021/06/06 00:43:30;;;;;;;13.60;7.28;;;;;;;;;;5105448;27;20583;-41
2021/06/06 00:45:56;;;;;;;19.73;7.85;;;;;;;;;;5107222;27;20103;-44
2021/06/06 00:48:22;;;;;;;18.30;5.03;;;;;;;;;;5106364;27;20467;-43
2021/06/06 00:50:49;;;;;;;6.82;4.55;;;;;;;;;;5101170;27;20024;-41
2021/06/06 00:53:35;;;;;;;11.95;5.80;;;;;;;;;;5107604;27;20030;-40
2021/06/06 00:56:01;;;;;;;9.25;4.72;;;;;;;;;;5084114;27;20376;-41
2021/06/06 00:58:27;;;;;;;17.92;5.25;;;;;;;;;;5104182;27;20572;-41
2021/06/06 01:00:53;;;;;;;10.77;6.63;;;;;;;;;;5108925;27;20114;-40
2021/06/06 01:03:19;;;;;;;27.05;6.65;;;;;;;;;;5104151;27;20027;-42
2021/06/06 01:05:48;;;;;;;18.77;4.95;;;;;;;;;;5098653;28;20032;-42
2021/06/06 01:08:14;;;;;;;9.82;6.32;;;;;;;;;;5101879;27;20024;-43
2021/06/06 01:10:40;;;;;;;20.42;5.47;;;;;;;;;;5110589;27;20027;-40
2021/06/06 01:13:18;;;;;;;11.52;7.57;;;;;;;;;;5110174;27;20023;-42
2021/06/06 01:15:46;;;;;;;9.02;5.97;;;;;;;;;;5110976;27;20023;-42
2021/06/06 01:18:23;;;;;;;11.60;6.40;;;;;;;;;;5107347;27;20035;-41
2021/06/06 01:20:48;;;;;;;9.70;7.03;;;;;;;;;;5105077;27;20020;-40
2021/06/06 01:23:32;;;;;;;11.02;6.72;;;;;;;;;;5106512;27;20446;-40
2021/06/06 01:26:00;;;;;;;9.98;5.47;;;;;;;;;;5105260;27;20498;-40
2021/06/06 01:28:31;;;;;;;12.52;5.57;;;;;;;;;;5102973;27;20030;-40
2021/06/06 01:30:57;;;;;;;12.65;5.97;;;;;;;;;;5104280;27;20118;-41
2021/06/06 01:33:35;;;;;;;14.90;5.80;;;;;;;;;;5099404;27;20035;-40
2021/06/06 01:36:03;;;;;;;8.27;4.90;;;;;;;;;;5102644;27;20027;-41
2021/06/06 01:38:31;;;;;;;11.20;5.85;;;;;;;;;;5104274;27;20057;-41
2021/06/06 01:40:59;;;;;;;10.02;5.03;;;;;;;;;;5106229;27;20015;-41
2021/06/06 01:43:28;;;;;;;10.15;5.20;;;;;;;;;;5101840;27;20057;-40
2021/06/06 01:45:59;;;;;;;17.13;6.35;;;;;;;;;;5101002;27;20056;-43
2021/06/06 01:48:24;;;;;;;;;;;;;;;;;;5103918;27;20023;-41
2021/06/06 01:50:55;;;;;;;14.80;6.88;;;;;;;;;;5103145;27;19988;-41
2021/06/06 01:53:21;;;;;;;24.67;6.85;;;;;;;;;;5103383;27;20573;-41
2021/06/06 01:55:52;;;;;;;19.17;8.20;;;;;;;;;;5104580;27;20458;-41
2021/06/06 01:58:18;;;;;;;10.10;5.97;;;;;;;;;;5105330;27;20026;-40
2021/06/06 02:00:46;;;;;;;16.60;6.90;;;;;;;;;;5105782;27;20034;-40
2021/06/06 02:03:12;;;;;;;9.32;5.28;;;;;;;;;;5099677;27;20103;-40
2021/06/06 02:05:38;;;;;;;10.63;4.82;;;;;;;;;;5109280;27;20060;-40
2021/06/06 02:08:06;;;;;;;7.28;4.97;;;;;;;;;;5102075;27;20458;-41
2021/06/06 02:10:36;;;;;;;9.45;6.50;;;;;;;;;;5104147;27;20019;-40
2021/06/06 02:13:09;;;;;;;6.25;5.65;;;;;;;;;;5101017;27;20658;-40
2021/06/06 02:15:35;;;;;;;5.35;4.30;;;;;;;;;;5104000;27;20031;-41
2021/06/06 02:18:02;;;;;;;11.65;6.03;;;;;;;;;;5101031;27;20023;-41
2021/06/06 02:20:29;;;;;;;11.35;7.70;;;;;;;;;;5099482;28;20024;-41
2021/06/06 02:22:56;;;;;;;9.70;7.38;;;;;;;;;;5102792;27;20043;-40
2021/06/06 02:25:22;;;;;;;9.00;6.22;;;;;;;;;;5102172;27;20028;-41
2021/06/06 02:27:59;;;;;;;16.50;7.25;;;;;;;;;;5098562;27;20013;-42
2021/06/06 02:30:28;;;;;;;10.38;6.38;;;;;;;;;;5099638;27;20024;-40
2021/06/06 02:33:05;;;;;;;7.75;6.90;;;;;;;;;;5102425;27;20024;-40
2021/06/06 02:35:35;;;;;;;8.48;5.70;;;;;;;;;;5099827;27;20172;-40
2021/06/06 02:38:06;;;;;;;10.75;6.05;;;;;;;;;;5103562;27;20027;-40
2021/06/06 02:40:34;;;;;;;9.82;6.47;;;;;;;;;;5105096;27;20019;-40
2021/06/06 02:43:03;;;;;;;12.18;5.47;;;;;;;;;;5104931;27;20026;-42
2021/06/06 02:45:29;;;;;;;19.02;6.25;;;;;;;;;;5104833;27;20056;-41
2021/06/06 02:48:01;;;;;;;16.40;6.07;;;;;;;;;;5098116;27;20016;-40
2021/06/06 02:50:28;;;;;;;15.15;6.25;;;;;;;;;;5102240;27;20020;-41
2021/06/06 02:52:58;;;;;;;7.05;5.88;;;;;;;;;;5100338;27;20424;-41
2021/06/06 02:55:25;;;;;;;10.35;5.78;;;;;;;;;;5101229;28;20077;-40
2021/06/06 02:58:11;;;;;;;12.85;5.88;;;;;;;;;;5097804;27;20093;-40
2021/06/06 03:00:39;;;;;;;5.15;4.30;;;;;;;;;;5098944;27;20032;-42
2021/06/06 03:03:21;;;;;;;6.22;4.15;;;;;;;;;;5102984;27;20104;-41
2021/06/06 03:05:48;;;;;;;11.27;5.20;;;;;;;;;;5102627;27;20063;-41
2021/06/06 03:08:14;;;;;;;12.65;5.65;;;;;;;;;;5102049;28;20060;-41
2021/06/06 03:10:40;;;;;;;7.75;4.40;;;;;;;;;;5100998;27;20102;-40
2021/06/06 03:13:12;;;;;;;7.97;6.13;;;;;;;;;;5105511;27;20020;-40
2021/06/06 03:15:40;;;;;;;18.23;6.32;;;;;;;;;;5106581;28;20068;-42
2021/06/06 03:18:06;;;;;;;10.40;5.75;;;;;;;;;;5102387;28;20035;-40
2021/06/06 03:20:37;;;;;;;12.95;6.13;;;;;;;;;;5096926;28;20023;-41
2021/06/06 03:23:04;;;;;;;14.63;6.85;;;;;;;;;;5094270;28;20496;-40
2021/06/06 03:25:32;;;;;;;14.65;6.30;;;;;;;;;;5101190;28;20063;-41
2021/06/06 03:27:57;;;;;;;6.90;5.10;;;;;;;;;;5099722;28;20016;-41
2021/06/06 03:30:32;;;;;;;18.88;8.18;;;;;;;;;;5103439;28;20478;-41
2021/06/06 03:32:58;;;;;;;9.57;6.47;;;;;;;;;;5106538;28;20019;-40
2021/06/06 03:35:24;;;;;;;9.25;6.53;;;;;;;;;;5107077;28;20031;-40
2021/06/06 03:37:50;;;;;;;6.00;5.43;;;;;;;;;;5106959;28;20024;-40
2021/06/06 03:40:16;;;;;;;10.52;5.93;;;;;;;;;;5105121;27;20106;-41
2021/06/06 03:42:41;;;;;;;8.02;5.32;;;;;;;;;;5102684;28;20028;-41
2021/06/06 03:45:08;;;;;;;9.45;5.90;;;;;;;;;;5104150;28;20027;-40
2021/06/06 03:47:33;;;;;;;12.20;6.32;;;;;;;;;;5104886;28;20096;-40
2021/06/06 03:49:58;;;;;;;16.90;5.45;;;;;;;;;;5102552;28;20107;-40
2021/06/06 03:52:24;;;;;;;15.10;7.15;;;;;;;;;;5101491;28;20016;-40
2021/06/06 03:54:51;;;;;;;14.30;6.18;;;;;;;;;;5102493;28;20160;-42
2021/06/06 03:57:17;;;;;;;9.60;6.00;;;;;;;;;;5107492;28;20032;-40
2021/06/06 03:59:42;;;;;;;16.40;6.25;;;;;;;;;;5103119;28;20042;-41
2021/06/06 04:02:07;;;;;;;10.35;5.72;;;;;;;;;;5109183;28;20024;-41
2021/06/06 04:04:32;;;;;;;11.80;6.28;;;;;;;;;;5103270;28;20579;-40
2021/06/06 04:06:58;;;;;;;9.55;5.43;;;;;;;;;;5099899;28;20403;-41
2021/06/06 04:09:23;;;;;;;18.48;6.75;;;;;;;;;;5099696;28;20024;-46
2021/06/06 04:11:48;;;;;;;10.45;6.53;;;;;;;;;;5102404;28;20072;-41
2021/06/06 04:14:14;;;;;;;7.53;5.20;;;;;;;;;;5101157;28;20028;-45
2021/06/06 04:16:39;;;;;;;15.93;6.00;;;;;;;;;;5097657;28;20020;-42
2021/06/06 04:19:05;;;;;;;14.13;6.40;;;;;;;;;;5099671;28;20019;-42
2021/06/06 04:21:31;;;;;;;8.82;5.13;;;;;;;;;;5100377;28;20502;-40
2021/06/06 04:23:57;;;;;;;16.80;7.60;;;;;;;;;;5099088;28;20429;-43
2021/06/06 04:26:22;;;;;;;6.93;3.85;;;;;;;;;;5100027;28;20016;-41
2021/06/06 04:28:48;;;;;;;16.23;5.28;;;;;;;;;;5099026;27;20052;-40
2021/06/06 04:31:14;;;;;;;10.65;4.60;;;;;;;;;;5108002;27;20142;-40
2021/06/06 04:33:39;;;;;;;9.40;4.85;;;;;;;;;;5103467;27;20012;-41
2021/06/06 04:36:05;;;;;;;7.85;3.78;;;;;;;;;;5107163;27;20821;-41
2021/06/06 04:38:30;;;;;;;9.90;4.15;;;;;;;;;;5107433;27;20023;-43
2021/06/06 04:40:58;;;;;;;9.10;2.47;;;;;;;;;;5106596;27;20023;-41
2021/06/06 04:43:24;;;;;;;8.52;4.18;;;;;;;;;;5104618;27;20631;-41
2021/06/06 04:45:50;;;;;;;12.27;4.63;;;;;;;;;;5105946;27;20028;-40
2021/06/06 04:48:17;;;;;;;6.47;2.97;;;;;;;;;;5105409;27;20015;-41
2021/06/06 04:50:43;;;;;;;8.98;5.15;;;;;;;;;;5101502;27;20020;-40
2021/06/06 04:53:08;;;;;;;8.43;4.60;;;;;;;;;;5106982;27;20028;-41
2021/06/06 04:55:34;;;;;;;8.95;4.38;;;;;;;;;;5109795;27;20034;-41
2021/06/06 04:58:00;;;;;;;4.50;3.10;;;;;;;;;;5107596;27;20031;-41
2021/06/06 05:00:26;;;;;;;4.93;3.17;;;;;;;;;;5107760;27;20540;-40
2021/06/06 05:02:52;;;;;;;7.53;3.65;;;;;;;;;;5104895;27;20019;-42
2021/06/06 05:05:18;;;;;;;3.53;2.90;;;;;;;;;;5105273;27;20699;-40
2021/06/06 05:07:49;;;;;;;5.18;3.85;;;;;;;;;;5103882;27;20381;-41
2021/06/06 05:10:14;;;;;;;6.47;2.97;;;;;;;;;;5108753;27;20120;-40
2021/06/06 05:12:39;;;;;;;8.50;3.60;;;;;;;;;;5100491;27;20409;-40
2021/06/06 05:15:05;;;;;;;5.95;3.08;;;;;;;;;;5113282;27;20029;-40
2021/06/06 05:17:30;;;;;;;5.97;3.92;;;;;;;;;;5109180;27;20489;-40
2021/06/06 05:19:55;;;;;;;10.20;5.35;;;;;;;;;;5104730;27;20020;-40
2021/06/06 05:22:21;;;;;;;9.20;3.55;;;;;;;;;;5101150;27;20072;-40
2021/06/06 05:24:46;;;;;;;5.35;2.75;;;;;;;;;;5101709;27;20073;-40
2021/06/06 05:27:11;;;;;;;8.25;4.25;;;;;;;;;;5101554;28;20043;-40
2021/06/06 05:29:37;;;;;;;8.82;4.25;;;;;;;;;;5100175;27;20031;-40
2021/06/06 05:32:03;;;;;;;15.07;3.90;;;;;;;;;;5105406;27;20485;-40
2021/06/06 05:34:29;;;;;;;7.78;3.78;;;;;;;;;;5097970;27;20066;-40
2021/06/06 05:36:54;;;;;;;5.70;2.95;;;;;;;;;;5099733;27;20056;-39
2021/06/06 05:39:19;;;;;;;4.45;1.70;;;;;;;;;;5102263;27;20034;-42
2021/06/06 05:41:45;;;;;;;6.50;2.65;;;;;;;;;;5099095;27;20747;-40
2021/06/06 05:44:10;;;;;;;4.32;1.25;;;;;;;;;;5104233;27;20039;-39
2021/06/06 05:46:35;;;;;;;3.20;1.35;;;;;;;;;;5106878;27;20652;-42
2021/06/06 05:49:02;;;;;;;6.15;2.55;;;;;;;;;;5111480;27;20026;-40
2021/06/06 05:51:28;;;;;;;1.25;0.90;;;;;;;;;;5112973;27;20075;-41
2021/06/06 05:53:54;;;;;;;3.17;1.83;;;;;;;;;;5110053;27;20027;-40
2021/06/06 05:56:19;;;;;;;1.55;1.00;;;;;;;;;;5102765;27;20020;-40
2021/06/06 05:58:45;;;;;;;6.05;1.17;;;;;;;;;;5103387;27;20110;-40
2021/06/06 06:01:10;;;;;;;7.70;1.73;;;;;;;;;;5106703;27;20062;-40
2021/06/06 06:03:36;;;;;;;3.17;1.65;;;;;;;;;;5101448;27;20053;-40
2021/06/06 06:06:02;;;;;;;16.63;3.53;;;;;;;;;;5100502;27;20096;-40
2021/06/06 06:08:29;;;;;;;4.35;2.25;;;;;;;;;;5096759;27;20063;-41
2021/06/06 06:10:55;;;;;;;10.57;2.10;;;;;;;;;;5109486;27;20024;-41
2021/06/06 06:13:22;;;;;;;4.13;2.45;;;;;;;;;;5112052;27;20016;-40
2021/06/06 06:15:47;;;;;;;3.72;1.95;;;;;;;;;;5112898;27;20035;-40
2021/06/06 06:18:13;;;;;;;3.75;1.70;;;;;;;;;;5099218;27;20019;-40
2021/06/06 06:20:39;;;;;;;2.08;1.50;;;;;;;;;;5108952;27;20027;-41
2021/06/06 06:23:04;;;;;;;6.85;1.83;;;;;;;;;;5106169;27;20020;-39
2021/06/06 06:25:29;;;;;;;2.92;1.50;;;;;;;;;;5105481;27;20035;-40
2021/06/06 06:27:55;;;;;;;1.13;0.75;;;;;;;;;;5102392;28;20030;-40
2021/06/06 06:30:23;;;;;;;2.80;2.00;;;;;;;;;;5095518;28;20538;-41
2021/06/06 06:32:48;;;;;;;10.98;1.92;;;;;;;;;;5099544;27;20032;-40
2021/06/06 06:35:14;;;;;;;4.80;1.77;;;;;;;;;;5099934;27;20031;-40
2021/06/06 06:37:40;;;;;;;2.60;1.10;;;;;;;;;;5102132;27;20020;-41
2021/06/06 06:40:06;;;;;;;11.55;1.92;;;;;;;;;;5102730;27;20020;-40
2021/06/06 06:42:32;;;;;;;12.68;1.85;;;;;;;;;;5101555;27;20027;-41
2021/06/06 06:44:57;;;;;;;5.72;2.13;;;;;;;;;;5105373;27;20020;-40
2021/06/06 06:47:22;;;;;;;1.63;1.17;;;;;;;;;;5102840;27;20023;-40
2021/06/06 06:49:48;;;;;;;2.08;0.85;;;;;;;;;;5097554;27;20031;-39
2021/06/06 06:52:13;;;;;;;2.85;2.03;;;;;;;;;;5102066;27;20022;-42
2021/06/06 06:54:38;;;;;;;5.32;2.08;;;;;;;;;;5101510;27;20027;-41
2021/06/06 06:57:04;;;;;;;3.15;1.48;;;;;;;;;;5095915;27;20138;-40
2021/06/06 06:59:29;;;;;;;2.13;1.30;;;;;;;;;;5101043;27;20104;-39
2021/06/06 07:01:55;;;;;;;5.53;1.88;;;;;;;;;;5098872;28;20024;-41
2021/06/06 07:04:20;;;;;;;5.85;2.58;;;;;;;;;;5096750;28;20132;-40
2021/06/06 07:06:47;;;;;;;3.60;1.73;;;;;;;;;;5101474;27;20073;-40
2021/06/06 07:09:12;;;;;;;4.38;1.58;;;;;;;;;;5096947;28;20462;-41
2021/06/06 07:11:37;;;;;;;6.25;2.63;;;;;;;;;;5098770;27;20514;-42
2021/06/06 07:14:03;;;;;;;7.72;3.67;;;;;;;;;;5104646;28;20031;-40
2021/06/06 07:16:28;;;;;;;2.95;2.25;;;;;;;;;;5100644;28;20077;-40
2021/06/06 07:18:54;;;;;;;5.53;1.75;;;;;;;;;;5099435;28;20034;-39
2021/06/06 07:21:22;;;;;;;28.48;22.02;;;;;;;;;;5098486;28;20019;-41
2021/06/06 07:23:47;;;;;;;56.00;48.55;;;;;;;;;;5106909;28;20034;-37
2021/06/06 07:26:18;;;;;;;83.65;75.05;;;;;;;;;;5096630;27;20398;-39
2021/06/06 07:28:43;;;;;;;73.20;65.80;;;;;;;;;;5094204;28;20027;-40
2021/06/06 07:31:09;;;;;;;77.55;69.68;;;;;;;;;;5097807;28;20031;-41
2021/06/06 07:33:37;;;;;;;34.90;30.98;;;;;;;;;;5103871;28;20023;-40
2021/06/06 07:36:07;;;;;;;43.40;35.30;;;;;;;;;;5098547;28;20023;-39
2021/06/06 07:38:32;;;;;;;43.45;35.00;;;;;;;;;;5099035;28;20024;-42
2021/06/06 07:40:58;;;;;;;39.38;34.08;;;;;;;;;;5106056;28;20484;-42
2021/06/06 07:43:24;;;;;;;37.00;27.00;;;;;;;;;;5097962;28;20142;-42
2021/06/06 07:45:49;;;;;;;48.40;28.58;;;;;;;;;;5099920;28;20110;-40
2021/06/06 07:48:15;;;;;;;32.47;29.27;;;;;;;;;;5093576;28;20011;-40
2021/06/06 07:50:42;;;;;;;28.35;22.02;;;;;;;;;;5100951;28;20546;-42
2021/06/06 07:53:07;;;;;;;28.20;21.35;;;;;;;;;;5100664;28;20087;-40
2021/06/06 07:55:33;;;;;;;31.77;23.08;;;;;;;;;;5096658;28;20122;-43
2021/06/06 07:57:58;;;;;;;30.23;23.95;;;;;;;;;;5102268;28;20027;-40
2021/06/06 08:00:27;;;;;;;22.70;19.30;;;;;;;;;;5100781;28;20019;-48
2021/06/06 08:02:52;;;;;;;24.98;21.45;;;;;;;;;;5101288;28;20504;-44
2021/06/06 08:05:18;;;;;;;29.13;18.35;;;;;;;;;;5101138;27;20851;-43
2021/06/06 08:07:44;;;;;;;26.80;19.33;;;;;;;;;;5103292;27;20016;-42
2021/06/06 08:10:10;;;;;;;19.92;16.92;;;;;;;;;;5103662;27;20135;-42
2021/06/06 08:12:35;;;;;;;29.25;18.75;;;;;;;;;;5103675;27;20031;-44
2021/06/06 08:15:01;;;;;;;15.05;13.38;;;;;;;;;;5101425;27;20012;-40
2021/06/06 08:17:26;;;;;;;17.23;13.23;;;;;;;;;;5100902;27;20034;-42
2021/06/06 08:19:51;;;;;;;16.40;6.78;;;;;;;;;;5102086;27;20031;-38
2021/06/06 08:22:17;;;;;;;9.77;5.85;;;;;;;;;;5101004;27;20020;-38
2021/06/06 08:24:42;;;;;;;5.22;3.55;;;;;;;;;;5097440;27;20032;-39
2021/06/06 08:27:07;;;;;;;6.65;4.68;;;;;;;;;;5102673;27;20028;-41
2021/06/06 08:29:33;;;;;;;11.52;4.10;;;;;;;;;;5103468;27;20656;-38
2021/06/06 08:31:59;;;;;;;8.73;5.90;;;;;;;;;;5104597;27;20019;-38
2021/06/06 08:34:25;;;;;;;11.00;6.18;;;;;;;;;;5100045;27;20031;-41
2021/06/06 08:36:50;;;;;;;8.05;5.80;;;;;;;;;;5101009;27;20246;-39
2021/06/06 08:39:18;;;;;;;8.57;5.28;;;;;;;;;;5102442;27;20042;-38
2021/06/06 08:41:43;;;;;;;7.60;5.63;;;;;;;;;;5102517;27;20024;-41
2021/06/06 08:44:13;;;;;;;7.32;4.15;;;;;;;;;;5101757;27;20406;-41
2021/06/06 08:46:43;;;;;;;8.30;3.50;;;;;;;;;;5103398;27;20511;-42
2021/06/06 08:49:08;;;;;;;6.57;3.08;;;;;;;;;;5098261;27;20055;-40
2021/06/06 08:51:47;;;;;;;6.88;3.28;;;;;;;;;;5101932;27;20115;-41
2021/06/06 08:54:24;;;;;;;8.73;2.20;;;;;;;;;;5100164;27;20016;-40
2021/06/06 08:57:05;;;;;;;9.00;2.08;;;;;;;;;;5096701;27;20030;-39
2021/06/06 08:59:43;;;;;;;8.85;2.90;;;;;;;;;;5098161;27;20027;-39
2021/06/06 09:02:18;;;;;;;6.75;3.28;;;;;;;;;;5099005;27;20096;-43
2021/06/06 09:04:43;;;;;;;5.05;2.47;;;;;;;;;;5107802;27;20047;-42
2021/06/06 09:07:28;;;;;;;4.88;2.45;;;;;;;;;;5106935;27;20152;-42
2021/06/06 09:09:53;;;;;;;7.35;2.50;;;;;;;;;;5101194;27;20012;-42
2021/06/06 09:12:23;;;;;;;5.18;1.98;;;;;;;;;;5103069;27;20030;-39
2021/06/06 09:14:49;;;;;;;3.33;1.90;;;;;;;;;;5102562;27;20037;-39
2021/06/06 09:17:16;;;;;;;7.45;2.28;;;;;;;;;;5103557;27;20110;-43
2021/06/06 09:19:46;;;;;;;2.83;2.03;;;;;;;;;;5099588;27;20491;-41
2021/06/06 09:22:13;;;;;;;4.90;4.32;;;;;;;;;;5100046;27;20036;-40
2021/06/06 09:24:47;;;;;;;4.25;1.77;;;;;;;;;;5105299;27;20031;-40
2021/06/06 09:27:12;;;;;;;2.33;1.25;;;;;;;;;;5105062;27;20047;-40
2021/06/06 09:29:38;;;;;;;3.97;1.92;;;;;;;;;;5105543;27;20507;-39
2021/06/06 09:32:08;;;;;;;7.82;4.35;;;;;;;;;;5096845;27;20230;-39
2021/06/06 09:34:33;;;;;;;3.50;3.17;;;;;;;;;;5095497;28;20325;-43
2021/06/06 09:37:01;;;;;;;3.40;1.85;;;;;;;;;;5099452;27;20533;-43
2021/06/06 09:39:26;;;;;;;4.00;2.10;;;;;;;;;;5097680;27;20680;-42
2021/06/06 09:41:54;;;;;;;3.20;1.65;;;;;;;;;;5098644;27;20027;-39
2021/06/06 09:44:33;;;;;;;3.17;1.92;;;;;;;;;;5097219;27;20031;-40
2021/06/06 09:47:04;;;;;;;5.32;1.27;;;;;;;;;;5099740;27;20020;-40
2021/06/06 09:49:34;;;;;;;7.82;1.83;;;;;;;;;;5100207;27;20033;-40
2021/06/06 09:52:14;;;;;;;2.88;1.15;;;;;;;;;;5095883;27;20019;-40
2021/06/06 09:54:41;;;;;;;5.03;1.60;;;;;;;;;;5106781;27;20028;-40
2021/06/06 09:57:14;;;;;;;4.63;2.10;;;;;;;;;;5107676;27;20486;-39
2021/06/06 09:59:40;;;;;;;3.50;1.10;;;;;;;;;;5101268;27;20059;-39
2021/06/06 10:02:21;;;;;;;1.92;1.23;;;;;;;;;;5098914;27;20059;-40
2021/06/06 10:04:46;;;;;;;4.97;1.95;;;;;;;;;;5093809;27;20044;-43
2021/06/06 10:07:24;;;;;;;2.63;1.50;;;;;;;;;;5096765;27;20034;-39
2021/06/06 10:09:51;;;;;;;6.25;1.73;;;;;;;;;;5093762;27;20076;-41
2021/06/06 10:12:26;;;;;;;2.33;1.02;;;;;;;;;;5098541;27;20055;-40
2021/06/06 10:14:58;;;;;;;0.88;0.63;;;;;;;;;;5104550;27;20081;-38
2021/06/06 10:17:43;;;;;;;2.53;1.23;;;;;;;;;;5096856;27;20024;-38
2021/06/06 10:20:08;;;;;;;4.35;1.90;;;;;;;;;;5102905;27;20495;-40
2021/06/06 10:22:36;;;;;;;7.85;0.70;;;;;;;;;;5096757;27;20033;-38
2021/06/06 10:25:10;;;;;;;1.25;0.85;;;;;;;;;;5099236;27;20050;-40
2021/06/06 10:27:37;;;;;;;1.27;0.77;;;;;;;;;;5102167;27;20106;-38
2021/06/06 10:30:02;;;;;;;2.40;1.13;;;;;;;;;;5099726;27;20582;-38
2021/06/06 10:32:37;;;;;;;1.38;1.02;;;;;;;;;;5101442;27;20027;-38
2021/06/06 10:35:08;;;;;;;2.60;1.25;;;;;;;;;;5095886;27;20031;-39
2021/06/06 10:37:33;;;;;;;;;;;;;;;;;;5095686;27;20046;-39
2021/06/06 10:40:27;;;;;;;4.17;1.87;;;;;;;;;;5097247;27;20546;-39
2021/06/06 10:43:13;;;;;;;2.10;1.35;;;;;;;;;;5029408;28;20033;-39
2021/06/06 10:45:44;;;;;;;4.55;1.30;;;;;;;;;;5092106;27;20084;-39
2021/06/06 10:48:13;;;;;;;1.38;0.82;;;;;;;;;;5097060;28;20024;-39
2021/06/06 10:50:39;;;;;;;5.22;2.28;;;;;;;;;;5099061;27;20020;-39
2021/06/06 10:53:07;;;;;;;2.78;2.10;;;;;;;;;;5098834;27;20551;-39
2021/06/06 10:55:34;;;;;;;2.63;1.90;;;;;;;;;;5104553;27;20035;-39
2021/06/06 10:58:26;;;;;;;5.82;2.20;;;;;;;;;;5101854;27;20032;-40
2021/06/06 11:00:56;;;;;;;13.88;1.70;;;;;;;;;;5101609;27;20402;-41
2021/06/06 11:03:24;;;;;;;4.87;2.57;;;;;;;;;;5103699;27;20113;-42
2021/06/06 11:05:51;;;;;;;1.48;0.80;;;;;;;;;;5099430;27;20040;-40
2021/06/06 11:08:19;;;;;;;5.72;2.15;;;;;;;;;;5098221;27;20027;-40
2021/06/06 11:10:45;;;;;;;7.03;3.15;;;;;;;;;;5101550;27;20015;-41
2021/06/06 11:13:28;;;;;;;1.92;1.17;;;;;;;;;;5101229;28;20778;-39
2021/06/06 11:15:56;;;;;;;1.73;0.90;;;;;;;;;;5112189;27;20494;-40
2021/06/06 11:18:22;;;;;;;1.73;0.82;;;;;;;;;;5098744;27;20034;-44
2021/06/06 11:21:07;;;;;;;3.72;1.83;;;;;;;;;;5100509;28;20027;-42
2021/06/06 11:23:45;;;;;;;7.00;1.42;;;;;;;;;;5098657;28;20755;-40
2021/06/06 11:26:16;;;;;;;2.35;1.52;;;;;;;;;;5097722;28;20022;-39
2021/06/06 11:28:42;;;;;;;1.70;0.98;;;;;;;;;;5101393;28;20103;-39
2021/06/06 11:31:30;;;;;;;4.40;1.77;;;;;;;;;;5096501;28;20376;-41
2021/06/06 11:34:03;;;;;;;3.20;1.70;;;;;;;;;;5098476;28;20032;-41
2021/06/06 11:36:40;;;;;;;2.60;1.15;;;;;;;;;;5103514;28;20019;-39
2021/06/06 11:39:28;;;;;;;0.88;0.82;;;;;;;;;;5101976;27;20693;-43
2021/06/06 11:41:54;;;;;;;0.95;0.60;;;;;;;;;;5098871;27;20115;-41
2021/06/06 11:44:22;;;;;;;9.82;2.95;;;;;;;;;;5099855;27;20123;-39
2021/06/06 11:46:58;;;;;;;7.05;1.08;;;;;;;;;;5102984;27;20012;-40
2021/06/06 11:49:34;;;;;;;1.95;1.30;;;;;;;;;;5104430;27;20019;-42
2021/06/06 11:52:15;;;;;;;1.08;0.60;;;;;;;;;;5106454;27;20027;-39
2021/06/06 11:54:52;;;;;;;5.70;1.38;;;;;;;;;;5106093;27;20689;-39
2021/06/06 11:57:24;;;;;;;2.53;0.60;;;;;;;;;;5101987;27;20182;-38
2021/06/06 12:00:05;;;;;;;3.75;1.33;;;;;;;;;;5102018;27;20020;-39
2021/06/06 12:02:32;;;;;;;6.43;1.23;;;;;;;;;;5104588;27;20015;-39
2021/06/06 12:05:08;;;;;;;3.85;1.45;;;;;;;;;;5113993;27;20212;-39
2021/06/06 12:07:35;;;;;;;1.98;1.23;;;;;;;;;;5111806;27;20435;-39
2021/06/06 12:10:01;;;;;;;2.92;1.40;;;;;;;;;;5106106;27;20024;-42
2021/06/06 12:12:29;;;;;;;1.42;1.00;;;;;;;;;;5105713;27;20020;-40
2021/06/06 12:15:00;;;;;;;4.53;1.90;;;;;;;;;;5106747;27;20024;-39
2021/06/06 12:17:26;;;;;;;2.53;1.73;;;;;;;;;;5103567;27;20027;-39
2021/06/06 12:19:53;;;;;;;2.75;1.10;;;;;;;;;;5102410;27;20039;-39
2021/06/06 12:22:19;;;;;;;6.22;1.95;;;;;;;;;;5108510;27;20035;-39
2021/06/06 12:24:55;;;;;;;6.63;1.42;;;;;;;;;;5106806;27;20379;-39
2021/06/06 12:27:23;;;;;;;1.90;1.42;;;;;;;;;;5103454;27;20027;-40
2021/06/06 12:29:51;;;;;;;3.17;1.23;;;;;;;;;;5109530;27;20401;-39
2021/06/06 12:32:24;;;;;;;1.67;1.13;;;;;;;;;;5096300;27;20443;-40
2021/06/06 12:34:50;;;;;;;2.83;1.27;;;;;;;;;;5104874;27;20144;-42
2021/06/06 12:37:20;;;;;;;1.30;0.90;;;;;;;;;;5104614;27;20058;-40
2021/06/06 12:39:46;;;;;;;1.23;0.70;;;;;;;;;;5102528;27;20103;-39
2021/06/06 12:42:12;;;;;;;0.80;0.47;;;;;;;;;;5099245;27;20028;-41
2021/06/06 12:44:47;;;;;;;1.27;0.93;;;;;;;;;;5102486;27;20019;-39
2021/06/06 12:47:24;;;;;;;1.20;0.75;;;;;;;;;;5101685;27;20482;-39
2021/06/06 12:49:51;;;;;;;2.33;1.20;;;;;;;;;;5101677;27;20031;-39
2021/06/06 12:52:31;;;;;;;3.00;0.90;;;;;;;;;;5101768;27;20442;-41
2021/06/06 12:54:57;;;;;;;1.53;0.80;;;;;;;;;;5099995;28;20035;-39
2021/06/06 12:57:25;;;;;;;1.13;0.73;;;;;;;;;;5102020;27;20024;-42
2021/06/06 12:59:51;;;;;;;1.98;0.77;;;;;;;;;;5105497;27;20019;-39
2021/06/06 13:02:19;;;;;;;1.50;1.10;;;;;;;;;;5104149;27;20383;-38
2021/06/06 13:04:45;;;;;;;2.92;1.13;;;;;;;;;;5101315;27;20085;-38
2021/06/06 13:07:22;;;;;;;7.93;2.97;;;;;;;;;;5106381;27;20114;-42
2021/06/06 13:09:50;;;;;;;1.63;1.27;;;;;;;;;;5109440;27;20018;-40
2021/06/06 13:12:17;;;;;;;3.38;1.20;;;;;;;;;;5102368;27;20020;-39
2021/06/06 13:14:57;;;;;;;2.13;1.08;;;;;;;;;;5100811;27;20016;-38
2021/06/06 13:17:24;;;;;;;3.85;1.83;;;;;;;;;;5102385;27;20103;-39
2021/06/06 13:19:49;;;;;;;1.55;1.00;;;;;;;;;;5101090;27;20035;-40
2021/06/06 13:22:29;;;;;;;1.88;0.70;;;;;;;;;;5097051;27;20058;-39
2021/06/06 13:24:55;;;;;;;2.25;1.00;;;;;;;;;;5101645;27;20042;-41
2021/06/06 13:27:20;;;;;;;2.83;0.95;;;;;;;;;;5097875;27;20550;-40
2021/06/06 13:29:47;;;;;;;3.20;1.27;;;;;;;;;;5101593;27;20541;-38
2021/06/06 13:32:19;;;;;;;0.93;0.63;;;;;;;;;;5108428;27;20056;-38
2021/06/06 13:34:46;;;;;;;2.25;0.88;;;;;;;;;;5106523;27;20450;-40
2021/06/06 13:37:11;;;;;;;1.48;1.10;;;;;;;;;;5106013;27;20538;-40
2021/06/06 13:39:37;;;;;;;1.02;0.80;;;;;;;;;;5109601;27;20134;-39
2021/06/06 13:42:04;;;;;;;0.55;0.40;;;;;;;;;;5105909;27;20024;-40
2021/06/06 13:44:29;;;;;;;1.98;0.40;;;;;;;;;;5096371;27;20053;-39
2021/06/06 13:46:56;;;;;;;1.25;0.80;;;;;;;;;;5101584;27;20871;-39
2021/06/06 13:49:21;;;;;;;2.40;1.27;;;;;;;;;;5100337;27;20020;-39
2021/06/06 13:51:46;;;;;;;5.47;1.50;;;;;;;;;;5100286;27;20399;-39
2021/06/06 13:54:11;;;;;;;5.47;0.88;;;;;;;;;;5099796;27;20431;-39
2021/06/06 13:56:37;;;;;;;0.77;0.73;;;;;;;;;;5104164;27;20571;-39
2021/06/06 13:59:03;;;;;;;1.05;0.73;;;;;;;;;;5100896;27;20107;-39
2021/06/06 14:01:31;;;;;;;2.60;1.17;;;;;;;;;;5099527;27;20027;-40
2021/06/06 14:03:56;;;;;;;1.05;0.75;;;;;;;;;;5099692;27;20119;-39
2021/06/06 14:06:22;;;;;;;4.20;0.93;;;;;;;;;;5108056;27;20103;-39
2021/06/06 14:08:47;;;;;;;0.93;0.65;;;;;;;;;;5104368;27;20470;-39
2021/06/06 14:11:15;;;;;;;1.05;0.65;;;;;;;;;;5104192;27;20020;-39
2021/06/06 14:13:41;;;;;;;1.20;0.73;;;;;;;;;;5101382;27;20031;-40
2021/06/06 14:16:08;;;;;;;5.05;0.77;;;;;;;;;;5101346;27;20020;-39
2021/06/06 14:18:34;;;;;;;3.08;0.93;;;;;;;;;;5103593;27;20020;-40
2021/06/06 14:21:00;;;;;;;0.65;0.40;;;;;;;;;;5106388;27;20023;-41
2021/06/06 14:23:25;;;;;;;1.20;0.88;;;;;;;;;;5104877;27;20038;-39
2021/06/06 14:25:51;;;;;;;0.88;0.50;;;;;;;;;;5100862;27;20077;-42
2021/06/06 14:28:18;;;;;;;0.68;0.20;;;;;;;;;;5104336;27;20020;-39
2021/06/06 14:30:44;;;;;;;0.85;0.40;;;;;;;;;;5105974;27;20070;-43
2021/06/06 14:33:10;;;;;;;1.45;0.47;;;;;;;;;;5100159;27;20020;-40
2021/06/06 14:35:36;;;;;;;2.75;1.60;;;;;;;;;;5102497;27;20126;-39
2021/06/06 14:38:02;;;;;;;2.28;0.80;;;;;;;;;;5105496;27;20511;-41
2021/06/06 14:40:30;;;;;;;1.00;0.47;;;;;;;;;;5102371;27;20020;-39
2021/06/06 14:42:56;;;;;;;0.98;0.57;;;;;;;;;;5102257;27;20095;-40
2021/06/06 14:45:23;;;;;;;0.90;0.50;;;;;;;;;;5099416;28;20015;-43